createdAt,value
2023-03-28T00:00:42.961Z,2.80
2023-03-28T00:03:09.795Z,3.57
2023-03-28T00:05:39.784Z,3.10
2023-03-28T00:08:06.746Z,3.28
2023-03-28T00:10:33.850Z,3.40
2023-03-28T00:13:00.289Z,3.30
2023-03-28T00:15:28.108Z,4.07
2023-03-28T00:17:54.531Z,3.07
2023-03-28T00:20:21.325Z,3.20
2023-03-28T00:22:47.761Z,3.53
2023-03-28T00:25:14.165Z,3.60
2023-03-28T00:27:40.555Z,3.50
2023-03-28T00:30:08.289Z,3.40
2023-03-28T00:32:35.195Z,3.17
2023-03-28T00:35:04.177Z,3.80
2023-03-28T00:37:30.606Z,3.73
2023-03-28T00:40:01.519Z,3.50
2023-03-28T00:42:28.020Z,3.13
2023-03-28T00:44:58.449Z,3.40
2023-03-28T00:47:24.969Z,3.40
2023-03-28T00:49:55.660Z,3.63
2023-03-28T00:52:25.248Z,3.65
2023-03-28T00:54:54.015Z,3.80
2023-03-28T00:57:20.784Z,4.07
2023-03-28T00:59:47.420Z,4.23
2023-03-28T01:02:13.933Z,3.90
2023-03-28T01:04:54.906Z,5.20
2023-03-28T01:07:21.504Z,3.63
2023-03-28T01:09:49.516Z,3.70
2023-03-28T01:12:18.080Z,3.73
2023-03-28T01:17:11.844Z,4.07
2023-03-28T01:19:56.684Z,3.83
2023-03-28T01:22:43.368Z,4.10
2023-03-28T01:25:45.943Z,4.63
2023-03-28T01:28:30.718Z,4.70
2023-03-28T01:31:28.326Z,6.33
2023-03-28T01:34:19.034Z,5.60
2023-03-28T01:36:54.529Z,5.18
2023-03-28T01:39:42.570Z,4.73
2023-03-28T01:42:41.447Z,4.50
2023-03-28T01:45:23.106Z,4.73
2023-03-28T01:48:05.170Z,5.10
2023-03-28T01:50:44.292Z,4.40
2023-03-28T01:53:27.907Z,3.50
2023-03-28T01:55:59.060Z,3.80
2023-03-28T01:58:35.541Z,4.40
2023-03-28T02:01:07.013Z,3.40
2023-03-28T02:03:38.857Z,4.23
2023-03-28T02:06:08.967Z,3.90
2023-03-28T02:08:39.395Z,4.55
2023-03-28T02:11:06.715Z,4.07
2023-03-28T02:13:39.813Z,4.50
2023-03-28T02:16:09.620Z,4.50
2023-03-28T02:18:41.016Z,4.05
2023-03-28T02:21:15.682Z,4.30
2023-03-28T02:23:50.389Z,4.30
2023-03-28T02:26:17.458Z,4.10
2023-03-28T02:28:46.817Z,4.17
2023-03-28T02:31:13.503Z,4.30
2023-03-28T02:33:41.184Z,4.67
2023-03-28T02:36:26.828Z,4.40
2023-03-28T02:39:02.607Z,4.57
2023-03-28T02:42:03.274Z,3.77
2023-03-28T02:44:29.736Z,4.30
2023-03-28T02:47:30.545Z,4.70
2023-03-28T02:49:59.961Z,4.55
2023-03-28T02:52:53.665Z,4.70
2023-03-28T02:55:48.307Z,4.47
2023-03-28T02:58:31.226Z,4.87
2023-03-28T03:00:57.901Z,4.60
2023-03-28T03:03:24.489Z,4.73
2023-03-28T03:05:51.044Z,4.93
2023-03-28T03:08:17.461Z,6.33
2023-03-28T03:10:43.845Z,5.10
2023-03-28T03:13:10.433Z,5.43
2023-03-28T03:15:36.999Z,4.70
2023-03-28T03:18:03.961Z,4.90
2023-03-28T03:20:30.882Z,5.20
2023-03-28T03:22:57.566Z,6.10
2023-03-28T03:25:24.136Z,5.90
2023-03-28T03:27:50.979Z,5.50
2023-03-28T03:30:17.750Z,5.17
2023-03-28T03:32:44.615Z,5.63
2023-03-28T03:35:11.766Z,6.73
2023-03-28T03:37:38.401Z,5.77
2023-03-28T03:40:05.623Z,5.60
2023-03-28T03:42:33.413Z,6.00
2023-03-28T03:44:59.983Z,5.67
2023-03-28T03:47:26.760Z,5.37
2023-03-28T03:49:54.815Z,5.90
2023-03-28T03:52:21.734Z,5.63
2023-03-28T03:54:48.240Z,5.10
2023-03-28T03:57:14.757Z,6.13
2023-03-28T03:59:41.626Z,6.00
2023-03-28T04:02:08.150Z,6.00
2023-03-28T04:04:34.724Z,5.27
2023-03-28T04:07:01.406Z,5.77
2023-03-28T04:09:28.217Z,5.97
2023-03-28T04:11:55.692Z,6.20
2023-03-28T04:14:22.310Z,6.00
2023-03-28T04:16:49.244Z,5.63
2023-03-28T04:19:16.021Z,6.23
2023-03-28T04:21:43.727Z,5.67
2023-03-28T04:24:10.162Z,6.00
2023-03-28T04:26:36.538Z,5.60
2023-03-28T04:29:02.973Z,5.53
2023-03-28T04:31:29.994Z,5.13
2023-03-28T04:33:57.067Z,5.00
2023-03-28T04:36:23.632Z,5.90
2023-03-28T04:38:50.418Z,6.13
2023-03-28T04:41:17.089Z,5.33
2023-03-28T04:43:44.194Z,5.33
2023-03-28T04:46:10.688Z,6.10
2023-03-28T04:48:37.776Z,5.43
2023-03-28T04:51:05.100Z,5.23
2023-03-28T04:53:31.484Z,5.67
2023-03-28T04:55:58.121Z,5.97
2023-03-28T04:58:24.612Z,5.07
2023-03-28T05:00:51.228Z,5.60
2023-03-28T05:03:20.463Z,6.87
2023-03-28T05:05:48.639Z,7.00
2023-03-28T05:08:16.837Z,6.97
2023-03-28T05:10:45.071Z,7.53
2023-03-28T05:13:11.708Z,6.30
2023-03-28T05:15:38.497Z,6.23
2023-03-28T05:18:05.252Z,7.73
2023-03-28T05:20:32.790Z,7.63
2023-03-28T05:22:59.570Z,7.10
2023-03-28T05:25:26.317Z,8.23
2023-03-28T05:27:52.751Z,8.00
2023-03-28T05:30:19.673Z,8.10
2023-03-28T05:32:46.430Z,10.43
2023-03-28T05:35:15.085Z,8.33
2023-03-28T05:37:44.126Z,10.63
2023-03-28T05:40:13.796Z,10.32
2023-03-28T05:42:40.527Z,11.40
2023-03-28T05:45:09.143Z,10.37
2023-03-28T05:47:35.742Z,9.73
2023-03-28T05:50:03.544Z,12.43
2023-03-28T05:52:30.281Z,9.87
2023-03-28T05:54:56.750Z,10.43
2023-03-28T05:57:23.892Z,9.83
2023-03-28T05:59:50.501Z,9.63
2023-03-28T06:02:19.406Z,8.67
2023-03-28T06:04:46.221Z,9.17
2023-03-28T06:07:13.321Z,9.03
2023-03-28T06:09:40.900Z,8.77
2023-03-28T06:12:07.875Z,8.90
2023-03-28T06:14:34.740Z,9.40
2023-03-28T06:17:01.230Z,8.07
2023-03-28T06:19:27.912Z,9.57
2023-03-28T06:21:54.380Z,9.60
2023-03-28T06:24:20.800Z,8.50
2023-03-28T06:26:47.277Z,9.40
2023-03-28T06:29:13.710Z,10.00
2023-03-28T06:31:40.315Z,9.63
2023-03-28T06:34:06.853Z,8.90
2023-03-28T06:36:33.365Z,9.13
2023-03-28T06:38:59.757Z,9.47
2023-03-28T06:41:26.652Z,8.87
2023-03-28T06:43:53.246Z,10.83
2023-03-28T06:46:20.177Z,9.87
2023-03-28T06:48:47.038Z,10.07
2023-03-28T06:51:13.696Z,10.33
2023-03-28T06:53:40.103Z,11.00
2023-03-28T06:56:07.252Z,10.17
2023-03-28T06:58:33.978Z,10.63
2023-03-28T07:01:00.629Z,9.60
2023-03-28T07:03:27.523Z,10.80
2023-03-28T07:05:53.926Z,9.77
2023-03-28T07:08:20.326Z,9.97
2023-03-28T07:10:47.069Z,10.30
2023-03-28T07:13:14.302Z,10.37
2023-03-28T07:15:40.901Z,10.30
2023-03-28T07:18:07.561Z,10.02
2023-03-28T07:20:33.954Z,9.90
2023-03-28T07:23:00.632Z,9.50
2023-03-28T07:25:27.171Z,8.27
2023-03-28T07:27:53.926Z,8.52
2023-03-28T07:30:20.425Z,8.63
2023-03-28T07:32:55.519Z,8.30
2023-03-28T07:35:23.908Z,7.72
2023-03-28T07:37:50.455Z,7.65
2023-03-28T07:40:17.041Z,7.40
2023-03-28T07:42:43.438Z,7.97
2023-03-28T07:45:10.400Z,7.55
2023-03-28T07:47:36.788Z,6.82
2023-03-28T07:50:03.476Z,6.50
2023-03-28T07:52:29.897Z,6.97
2023-03-28T07:54:56.291Z,7.53
2023-03-28T07:57:22.698Z,6.72
2023-03-28T07:59:49.359Z,7.07
2023-03-28T08:02:16.381Z,6.30
2023-03-28T08:04:43.693Z,6.47
2023-03-28T08:07:10.451Z,6.43
2023-03-28T08:09:36.872Z,6.20
2023-03-28T08:12:03.369Z,5.80
2023-03-28T08:14:29.981Z,5.43
2023-03-28T08:16:56.411Z,5.40
2023-03-28T08:19:23.939Z,4.57
2023-03-28T08:21:50.989Z,4.75
2023-03-28T08:24:29.001Z,5.57
2023-03-28T08:26:59.679Z,5.47
2023-03-28T08:29:26.285Z,5.13
2023-03-28T08:31:53.077Z,4.63
2023-03-28T08:34:19.762Z,4.32
2023-03-28T08:36:46.504Z,7.63
2023-03-28T08:39:13.385Z,4.65
2023-03-28T08:41:51.812Z,5.13
2023-03-28T08:44:34.650Z,4.15
2023-03-28T08:47:18.909Z,4.57
2023-03-28T08:49:54.563Z,4.18
2023-03-28T08:52:21.707Z,3.78
2023-03-28T08:55:26.098Z,3.30
2023-03-28T08:57:54.723Z,3.67
2023-03-28T09:00:32.450Z,3.35
2023-03-28T09:03:00.543Z,3.67
2023-03-28T09:05:52.064Z,3.58
2023-03-28T09:08:33.127Z,3.70
2023-03-28T09:11:30.676Z,3.60
2023-03-28T09:14:14.770Z,3.13
2023-03-28T09:16:59.184Z,2.90
2023-03-28T09:19:51.070Z,2.90
2023-03-28T09:22:45.218Z,3.45
2023-03-28T09:25:20.948Z,3.13
2023-03-28T09:28:03.818Z,3.22
2023-03-28T09:30:51.698Z,2.90
2023-03-28T09:33:34.310Z,2.63
2023-03-28T09:36:02.508Z,3.25
2023-03-28T09:38:38.828Z,3.35
2023-03-28T09:41:14.931Z,2.95
2023-03-28T09:43:56.245Z,2.78
2023-03-28T09:46:30.548Z,3.55
2023-03-28T09:48:57.922Z,3.47
2023-03-28T09:51:24.754Z,3.22
2023-03-28T09:53:51.111Z,3.05
2023-03-28T09:56:47.893Z,3.17
2023-03-28T09:59:27.779Z,2.65
2023-03-28T10:01:55.964Z,2.88
2023-03-28T10:04:28.481Z,3.03
2023-03-28T10:07:15.606Z,3.63
2023-03-28T10:09:56.715Z,2.58
2023-03-28T10:12:32.360Z,2.05
2023-03-28T10:14:59.173Z,2.63
2023-03-28T10:17:32.817Z,2.70
2023-03-28T10:20:03.816Z,2.53
2023-03-28T10:22:35.488Z,2.70
2023-03-28T10:25:05.411Z,2.60
2023-03-28T10:27:35.244Z,2.30
2023-03-28T10:30:25.459Z,2.63
2023-03-28T10:33:18.054Z,3.05
2023-03-28T10:35:47.468Z,2.55
2023-03-28T10:38:19.120Z,2.20
2023-03-28T10:40:59.785Z,2.83
2023-03-28T10:43:35.796Z,2.35
2023-03-28T10:46:05.750Z,3.00
2023-03-28T10:48:35.588Z,2.70
2023-03-28T10:51:04.970Z,2.63
2023-03-28T10:54:11.109Z,2.33
2023-03-28T10:56:57.657Z,2.38
2023-03-28T10:59:57.612Z,2.05
2023-03-28T11:02:51.692Z,2.20
2023-03-28T11:05:31.882Z,1.90
2023-03-28T11:08:40.370Z,2.83
2023-03-28T11:11:45.353Z,2.28
2023-03-28T11:14:22.413Z,2.40
2023-03-28T11:17:04.115Z,1.90
2023-03-28T11:20:08.048Z,1.75
2023-03-28T11:22:34.642Z,1.92
2023-03-28T11:25:28.539Z,2.20
2023-03-28T11:28:21.414Z,2.00
2023-03-28T11:30:52.613Z,2.63
2023-03-28T11:33:32.087Z,2.05
2023-03-28T11:36:16.865Z,2.30
2023-03-28T11:38:51.152Z,1.88
2023-03-28T11:41:21.160Z,2.15
2023-03-28T11:44:00.867Z,2.20
2023-03-28T11:46:31.492Z,2.20
2023-03-28T11:49:16.405Z,2.03
2023-03-28T11:51:55.833Z,1.77
2023-03-28T11:54:28.485Z,1.98
2023-03-28T11:57:13.654Z,1.70
2023-03-28T12:00:04.930Z,4.15
2023-03-28T12:02:31.729Z,2.08
2023-03-28T12:05:26.626Z,1.50
2023-03-28T12:08:02.584Z,2.20
2023-03-28T12:10:32.372Z,2.63
2023-03-28T12:13:04.695Z,2.35
2023-03-28T12:15:58.518Z,2.28
2023-03-28T12:18:34.003Z,2.22
2023-03-28T12:21:31.646Z,1.80
2023-03-28T12:24:21.279Z,1.48
2023-03-28T12:27:02.940Z,1.98
2023-03-28T12:30:03.004Z,2.38
2023-03-28T12:32:51.567Z,1.88
2023-03-28T12:35:36.816Z,1.67
2023-03-28T12:38:28.066Z,2.20
2023-03-28T12:41:02.605Z,2.00
2023-03-28T12:43:57.601Z,1.40
2023-03-28T12:46:29.675Z,2.53
2023-03-28T12:48:58.992Z,4.60
2023-03-28T12:51:32.388Z,1.75
2023-03-28T12:54:15.718Z,1.70
2023-03-28T12:56:46.104Z,1.70
2023-03-28T12:59:44.419Z,1.80
2023-03-28T13:02:13.643Z,3.25
2023-03-28T13:05:15.967Z,2.42
2023-03-28T13:08:25.426Z,2.10
2023-03-28T13:11:05.068Z,1.90
2023-03-28T13:13:43.739Z,2.67
2023-03-28T13:16:24.931Z,1.90
2023-03-28T13:19:13.804Z,2.05
2023-03-28T13:21:54.179Z,1.95
2023-03-28T13:24:26.381Z,2.13
2023-03-28T13:27:32.001Z,2.10
2023-03-28T13:30:01.646Z,1.83
2023-03-28T13:32:34.342Z,1.60
2023-03-28T13:35:06.440Z,2.25
2023-03-28T13:37:47.495Z,2.90
2023-03-28T13:41:08.703Z,3.60
2023-03-28T13:46:25.995Z,2.53
2023-03-28T13:49:01.105Z,2.33
2023-03-28T13:51:33.910Z,1.85
2023-03-28T13:54:00.878Z,2.08
2023-03-28T13:56:35.504Z,1.95
2023-03-28T13:59:07.708Z,2.17
2023-03-28T14:01:41.848Z,2.00
2023-03-28T14:04:18.813Z,2.15
2023-03-28T14:06:45.479Z,2.22
2023-03-28T14:09:30.271Z,2.40
2023-03-28T14:12:01.078Z,1.95
2023-03-28T14:17:14.147Z,2.35
2023-03-28T14:19:48.266Z,1.92
2023-03-28T14:22:17.085Z,1.75
2023-03-28T14:24:47.286Z,2.22
2023-03-28T14:27:16.135Z,2.20
2023-03-28T14:29:52.777Z,2.42
2023-03-28T14:32:26.169Z,2.10
2023-03-28T14:34:52.914Z,1.88
2023-03-28T14:37:20.422Z,1.65
2023-03-28T14:39:46.861Z,1.80
2023-03-28T14:42:18.912Z,1.85
2023-03-28T14:44:50.736Z,2.10
2023-03-28T14:47:26.456Z,1.90
2023-03-28T14:49:53.301Z,1.85
2023-03-28T14:52:28.994Z,1.63
2023-03-28T14:54:57.136Z,2.10
2023-03-28T14:57:24.625Z,2.55
2023-03-28T14:59:52.589Z,2.65
2023-03-28T15:02:26.156Z,1.83
2023-03-28T15:04:54.878Z,2.05
2023-03-28T15:07:26.957Z,2.33
2023-03-28T15:10:10.153Z,2.78
2023-03-28T15:12:47.179Z,2.03
2023-03-28T15:15:35.490Z,1.83
2023-03-28T15:18:06.874Z,2.47
2023-03-28T15:20:36.852Z,1.80
2023-03-28T15:23:07.640Z,2.80
2023-03-28T15:28:06.412Z,2.15
2023-03-28T15:30:35.606Z,1.73
2023-03-28T15:33:05.500Z,2.22
2023-03-28T15:35:40.657Z,1.73
2023-03-28T15:38:15.119Z,1.90
2023-03-28T15:40:50.345Z,2.10
2023-03-28T15:43:25.913Z,2.35
2023-03-28T15:46:03.567Z,2.08
2023-03-28T15:48:33.930Z,1.80
2023-03-28T15:51:04.936Z,2.10
2023-03-28T15:53:32.040Z,1.75
2023-03-28T15:56:13.968Z,1.92
2023-03-28T15:58:43.822Z,2.30
2023-03-28T16:01:30.421Z,2.30
2023-03-28T16:04:27.924Z,1.77
2023-03-28T16:07:15.627Z,2.05
2023-03-28T16:09:42.351Z,1.80
2023-03-28T16:12:13.064Z,2.05
2023-03-28T16:14:50.996Z,1.67
2023-03-28T16:17:17.511Z,1.80
2023-03-28T16:19:43.991Z,1.98
2023-03-28T16:22:10.415Z,1.73
2023-03-28T16:24:36.775Z,1.55
2023-03-28T16:27:03.465Z,3.20
2023-03-28T16:29:30.228Z,1.80
2023-03-28T16:31:56.682Z,1.83
2023-03-28T16:34:23.161Z,1.55
2023-03-28T16:36:49.630Z,1.55
2023-03-28T16:39:16.046Z,1.63
2023-03-28T16:41:42.417Z,1.70
2023-03-28T16:44:09.174Z,2.08
2023-03-28T16:46:36.390Z,2.00
2023-03-28T16:49:02.801Z,1.92
2023-03-28T16:51:29.554Z,1.98
2023-03-28T16:53:56.063Z,1.90
2023-03-28T16:56:22.654Z,1.80
2023-03-28T16:58:49.010Z,2.30
2023-03-28T17:01:16.068Z,2.03
2023-03-28T17:03:42.650Z,2.03
2023-03-28T17:06:10.602Z,2.45
2023-03-28T17:08:38.272Z,2.40
2023-03-28T17:11:10.016Z,3.05
2023-03-28T17:13:38.338Z,2.13
2023-03-28T17:16:06.232Z,1.90
2023-03-28T17:18:32.661Z,2.22
2023-03-28T17:21:05.563Z,2.08
2023-03-28T17:23:33.244Z,3.28
2023-03-28T17:26:00.384Z,3.63
2023-03-28T17:28:28.345Z,5.63
2023-03-28T17:30:58.603Z,2.33
2023-03-28T17:33:25.777Z,2.42
2023-03-28T17:35:52.277Z,2.60
2023-03-28T17:38:18.652Z,2.35
2023-03-28T17:40:49.011Z,2.30
2023-03-28T17:43:16.158Z,2.50
2023-03-28T17:45:42.646Z,2.70
2023-03-28T17:48:09.188Z,2.72
2023-03-28T17:50:36.040Z,2.42
2023-03-28T17:53:02.799Z,2.70
2023-03-28T17:55:29.216Z,3.05
2023-03-28T17:57:55.734Z,3.42
2023-03-28T18:00:22.619Z,3.13
2023-03-28T18:02:49.421Z,2.85
2023-03-28T18:05:15.955Z,2.88
2023-03-28T18:07:42.402Z,2.60
2023-03-28T18:10:09.550Z,2.60
2023-03-28T18:12:36.797Z,4.25
2023-03-28T18:15:04.106Z,6.90
2023-03-28T18:17:30.543Z,4.32
2023-03-28T18:19:56.936Z,2.78
2023-03-28T18:22:23.372Z,3.28
2023-03-28T18:24:50.291Z,21.55
2023-03-28T18:27:16.962Z,7.28
2023-03-28T18:29:43.364Z,3.53
2023-03-28T18:32:09.688Z,3.78
2023-03-28T18:34:36.098Z,3.90
2023-03-28T18:37:02.484Z,2.90
2023-03-28T18:39:29.266Z,2.88
2023-03-28T18:41:55.781Z,3.28
2023-03-28T18:44:22.358Z,5.47
2023-03-28T18:46:48.979Z,6.93
2023-03-28T18:49:15.461Z,4.95
2023-03-28T18:51:42.021Z,4.95
2023-03-28T18:54:08.447Z,6.57
2023-03-28T18:56:34.853Z,5.82
2023-03-28T18:59:01.302Z,5.25
2023-03-28T19:01:27.865Z,3.75
2023-03-28T19:03:54.429Z,3.92
2023-03-28T19:06:21.328Z,3.38
2023-03-28T19:08:47.876Z,4.00
2023-03-28T19:11:16.241Z,3.85
2023-03-28T19:13:43.598Z,3.70
2023-03-28T19:16:13.170Z,3.55
2023-03-28T19:18:42.509Z,4.03
2023-03-28T19:21:10.678Z,4.70
2023-03-28T19:23:40.959Z,5.57
2023-03-28T19:26:11.849Z,4.80
2023-03-28T19:28:38.844Z,5.07
2023-03-28T19:31:07.745Z,5.20
2023-03-28T19:33:36.068Z,5.07
2023-03-28T19:36:03.014Z,4.75
2023-03-28T19:38:33.411Z,4.57
2023-03-28T19:41:02.062Z,4.30
2023-03-28T19:43:30.514Z,4.30
2023-03-28T19:46:05.043Z,4.70
2023-03-28T19:48:33.013Z,5.07
2023-03-28T19:50:59.957Z,4.78
2023-03-28T19:53:27.062Z,5.15
2023-03-28T19:55:55.204Z,5.85
2023-03-28T19:58:22.584Z,5.63
2023-03-28T20:00:49.114Z,4.70
2023-03-28T20:03:16.149Z,3.40
2023-03-28T20:05:47.291Z,3.28
2023-03-28T20:08:14.958Z,3.55
2023-03-28T20:10:49.461Z,2.83
2023-03-28T20:13:16.672Z,5.20
2023-03-28T20:15:44.956Z,4.55
2023-03-28T20:18:13.813Z,3.80
2023-03-28T20:20:43.575Z,4.47
2023-03-28T20:23:10.515Z,6.18
2023-03-28T20:25:37.013Z,6.32
2023-03-28T20:28:03.813Z,9.98
2023-03-28T20:30:31.343Z,9.13
2023-03-28T20:32:58.588Z,6.28
2023-03-28T20:35:28.356Z,4.63
2023-03-28T20:37:54.890Z,4.53
2023-03-28T20:40:23.216Z,4.43
2023-03-28T20:42:49.644Z,4.05
2023-03-28T20:45:16.776Z,4.50
2023-03-28T20:47:43.432Z,3.90
2023-03-28T20:50:10.331Z,3.92
2023-03-28T20:52:38.129Z,3.78
2023-03-28T20:55:05.941Z,4.85
2023-03-28T20:57:32.383Z,5.03
2023-03-28T20:59:58.870Z,4.43
2023-03-28T21:02:26.799Z,4.22
2023-03-28T21:04:53.353Z,3.53
2023-03-28T21:07:20.025Z,3.55
2023-03-28T21:09:46.659Z,4.15
2023-03-28T21:12:13.120Z,3.75
2023-03-28T21:14:39.438Z,3.80
2023-03-28T21:17:07.075Z,3.85
2023-03-28T21:19:33.780Z,3.80
2023-03-28T21:22:00.836Z,3.00
2023-03-28T21:24:27.546Z,3.20
2023-03-28T21:26:54.250Z,4.03
2023-03-28T21:29:20.946Z,3.72
2023-03-28T21:31:47.501Z,4.40
2023-03-28T21:34:13.982Z,4.53
2023-03-28T21:36:40.409Z,4.07
2023-03-28T21:39:06.876Z,3.40
2023-03-28T21:41:33.513Z,2.80
2023-03-28T21:43:59.874Z,3.40
2023-03-28T21:46:26.676Z,2.92
2023-03-28T21:48:53.090Z,4.13
2023-03-28T21:51:19.468Z,3.63
2023-03-28T21:53:46.057Z,3.88
2023-03-28T21:56:12.704Z,3.50
2023-03-28T21:58:39.085Z,4.00
2023-03-28T22:01:05.955Z,3.72
2023-03-28T22:03:36.228Z,3.72
2023-03-28T22:06:03.158Z,3.73
2023-03-28T22:08:29.679Z,3.75
2023-03-28T22:10:57.899Z,3.13
2023-03-28T22:13:24.934Z,4.38
2023-03-28T22:15:51.975Z,3.80
2023-03-28T22:18:18.795Z,3.70
2023-03-28T22:20:46.107Z,4.00
2023-03-28T22:23:12.582Z,4.13
2023-03-28T22:25:39.413Z,3.20
2023-03-28T22:28:09.148Z,3.85
2023-03-28T22:30:37.993Z,4.00
2023-03-28T22:33:05.299Z,3.35
2023-03-28T22:35:32.346Z,4.03
2023-03-28T22:37:59.784Z,3.47
2023-03-28T22:40:26.757Z,6.47
2023-03-28T22:42:53.205Z,4.22
2023-03-28T22:45:22.913Z,3.70
2023-03-28T22:47:50.535Z,3.60
2023-03-28T22:50:18.502Z,3.25
2023-03-28T22:52:45.951Z,3.20
2023-03-28T22:55:12.752Z,3.00
2023-03-28T22:57:40.665Z,3.38
2023-03-28T23:00:08.178Z,3.28
2023-03-28T23:02:35.304Z,3.22
2023-03-28T23:05:01.891Z,3.33
2023-03-28T23:07:28.618Z,3.17
2023-03-28T23:09:55.508Z,2.58
2023-03-28T23:12:21.974Z,2.50
2023-03-28T23:14:48.744Z,2.20
2023-03-28T23:17:15.377Z,2.50
2023-03-28T23:19:42.156Z,2.65
2023-03-28T23:22:08.510Z,3.08
2023-03-28T23:24:35.116Z,2.88
2023-03-28T23:27:01.682Z,2.42
2023-03-28T23:29:28.149Z,2.15
2023-03-28T23:31:54.843Z,2.33
2023-03-28T23:34:21.314Z,2.50
2023-03-28T23:36:48.015Z,2.55
2023-03-28T23:39:14.789Z,2.10
2023-03-28T23:41:41.357Z,2.55
2023-03-28T23:44:07.836Z,2.70
2023-03-28T23:46:34.600Z,2.05
2023-03-28T23:49:01.323Z,2.47
2023-03-28T23:51:28.114Z,1.95
2023-03-28T23:53:55.427Z,2.85
2023-03-28T23:56:22.196Z,2.50
2023-03-28T23:58:48.630Z,2.60
